sensor_id;sensor_type;location;lat;lon;timestamp;pressure;altitude;pressure_sealevel;temperature;humidity
48778;BME280;34578;0.000;0.000;2022-07-06T00:04:57;97298.72;;;19.84;56.42
48778;BME280;34578;0.000;0.000;2022-07-06T00:09:58;97292.75;;;19.82;56.26
48778;BME280;34578;0.000;0.000;2022-07-06T00:14:58;97286.84;;;19.86;56.38
48778;BME280;34578;0.000;0.000;2022-07-06T00:19:59;97303.78;;;19.87;56.17
48778;BME280;34578;0.000;0.000;2022-07-06T00:24:59;97292.75;;;19.82;56.02
48778;BME280;34578;0.000;0.000;2022-07-06T00:30:00;97296.13;;;19.78;56.14
48778;BME280;34578;0.000;0.000;2022-07-06T00:35:00;97288.53;;;19.78;56.18
48778;BME280;34578;0.000;0.000;2022-07-06T00:40:00;97274.97;;;19.76;56.14
48778;BME280;34578;0.000;0.000;2022-07-06T00:45:01;97276.63;;;19.74;56.05
48778;BME280;34578;0.000;0.000;2022-07-06T00:50:03;97277.47;;;19.73;55.67
48778;BME280;34578;0.000;0.000;2022-07-06T00:55:19;97274.94;;;19.71;55.41
48778;BME280;34578;0.000;0.000;2022-07-06T01:00:21;97281.72;;;19.75;55.46
48778;BME280;34578;0.000;0.000;2022-07-06T01:05:22;97275.81;;;19.75;55.14
48778;BME280;34578;0.000;0.000;2022-07-06T01:10:24;97269.00;;;19.68;55.32
48778;BME280;34578;0.000;0.000;2022-07-06T01:15:25;97276.63;;;19.68;55.23
48778;BME280;34578;0.000;0.000;2022-07-06T01:20:27;97268.09;;;19.61;55.16
48778;BME280;34578;0.000;0.000;2022-07-06T01:25:29;97270.66;;;19.61;55.32
48778;BME280;34578;0.000;0.000;2022-07-06T01:30:29;97266.44;;;19.62;55.04
48778;BME280;34578;0.000;0.000;2022-07-06T01:35:31;97260.50;;;19.61;54.97
48778;BME280;34578;0.000;0.000;2022-07-06T01:40:32;97262.19;;;19.58;54.99
48778;BME280;34578;0.000;0.000;2022-07-06T01:45:33;97260.50;;;19.60;54.75
48778;BME280;34578;0.000;0.000;2022-07-06T01:50:33;97246.09;;;19.62;54.67
48778;BME280;34578;0.000;0.000;2022-07-06T01:55:34;97246.97;;;19.58;54.60
48778;BME280;34578;0.000;0.000;2022-07-06T02:00:34;97247.78;;;19.58;54.38
48778;BME280;34578;0.000;0.000;2022-07-06T02:05:35;97246.09;;;19.54;54.57
48778;BME280;34578;0.000;0.000;2022-07-06T02:10:35;97245.22;;;19.51;54.59
48778;BME280;34578;0.000;0.000;2022-07-06T02:15:36;97240.09;;;19.48;54.57
48778;BME280;34578;0.000;0.000;2022-07-06T02:20:36;97241.81;;;19.46;54.51
48778;BME280;34578;0.000;0.000;2022-07-06T02:25:37;97251.97;;;19.46;54.25
48778;BME280;34578;0.000;0.000;2022-07-06T02:30:38;97238.41;;;19.36;54.42
48778;BME280;34578;0.000;0.000;2022-07-06T02:35:38;97252.84;;;19.52;54.04
48778;BME280;34578;0.000;0.000;2022-07-06T02:40:43;97256.22;;;19.50;54.19
48778;BME280;34578;0.000;0.000;2022-07-06T02:45:44;97257.03;;;19.46;53.96
48778;BME280;34578;0.000;0.000;2022-07-06T02:50:46;97264.66;;;19.43;53.97
48778;BME280;34578;0.000;0.000;2022-07-06T02:55:47;97268.03;;;19.40;54.06
48778;BME280;34578;0.000;0.000;2022-07-06T03:00:47;97265.47;;;19.39;53.99
48778;BME280;34578;0.000;0.000;2022-07-06T03:05:48;97284.09;;;19.38;53.94
48778;BME280;34578;0.000;0.000;2022-07-06T03:10:50;97280.69;;;19.36;54.02
48778;BME280;34578;0.000;0.000;2022-07-06T03:15:51;97273.06;;;19.33;54.16
48778;BME280;34578;0.000;0.000;2022-07-06T03:20:52;97284.09;;;19.35;54.03
48778;BME280;34578;0.000;0.000;2022-07-06T03:25:53;97284.94;;;19.40;53.92
48778;BME280;34578;0.000;0.000;2022-07-06T03:30:54;97287.47;;;19.37;53.63
48778;BME280;34578;0.000;0.000;2022-07-06T03:35:56;97278.97;;;19.33;53.80
48778;BME280;34578;0.000;0.000;2022-07-06T03:40:56;97270.50;;;19.27;53.62
48778;BME280;34578;0.000;0.000;2022-07-06T03:45:57;97280.66;;;19.30;53.81
48778;BME280;34578;0.000;0.000;2022-07-06T03:50:58;97284.09;;;19.35;53.67
48778;BME280;34578;0.000;0.000;2022-07-06T03:55:58;97253.72;;;19.62;51.36
48778;BME280;34578;0.000;0.000;2022-07-06T04:01:18;97281.78;;;19.93;50.33
48778;BME280;34578;0.000;0.000;2022-07-06T04:06:18;97277.63;;;20.06;49.90
48778;BME280;34578;0.000;0.000;2022-07-06T04:11:19;97274.16;;;19.98;49.94
48778;BME280;34578;0.000;0.000;2022-07-06T04:16:20;97279.28;;;20.01;50.36
48778;BME280;34578;0.000;0.000;2022-07-06T04:21:21;97276.72;;;19.99;49.67
48778;BME280;34578;0.000;0.000;2022-07-06T04:26:21;97269.94;;;19.89;50.55
48778;BME280;34578;0.000;0.000;2022-07-06T04:31:22;97273.31;;;19.84;51.26
48778;BME280;34578;0.000;0.000;2022-07-06T04:36:24;97268.22;;;19.90;50.52
48778;BME280;34578;0.000;0.000;2022-07-06T04:41:25;97271.63;;;19.90;50.43
48778;BME280;34578;0.000;0.000;2022-07-06T04:46:27;97280.00;;;19.73;51.59
48778;BME280;34578;0.000;0.000;2022-07-06T04:51:27;97280.91;;;19.85;51.57
48778;BME280;34578;0.000;0.000;2022-07-06T04:56:28;97280.19;;;20.12;50.69
48778;BME280;34578;0.000;0.000;2022-07-06T05:01:30;97279.34;;;20.22;50.20
48778;BME280;34578;0.000;0.000;2022-07-06T05:06:30;97271.75;;;20.23;50.15
48778;BME280;34578;0.000;0.000;2022-07-06T05:11:31;97273.44;;;20.17;50.78
48778;BME280;34578;0.000;0.000;2022-07-06T05:16:32;97286.97;;;20.16;52.46
48778;BME280;34578;0.000;0.000;2022-07-06T05:21:32;97282.72;;;20.15;52.87
48778;BME280;34578;0.000;0.000;2022-07-06T05:26:33;97279.31;;;20.16;53.07
48778;BME280;34578;0.000;0.000;2022-07-06T05:31:34;97281.06;;;20.17;53.28
48778;BME280;34578;0.000;0.000;2022-07-06T05:36:34;97283.53;;;20.02;53.22
48778;BME280;34578;0.000;0.000;2022-07-06T05:41:35;97279.31;;;20.11;53.93
48778;BME280;34578;0.000;0.000;2022-07-06T05:46:36;97283.56;;;20.14;53.40
48778;BME280;34578;0.000;0.000;2022-07-06T05:51:37;97287.81;;;20.16;54.12
48778;BME280;34578;0.000;0.000;2022-07-06T05:56:37;97292.94;;;20.36;52.82
48778;BME280;34578;0.000;0.000;2022-07-06T06:01:38;97287.00;;;20.44;52.67
48778;BME280;34578;0.000;0.000;2022-07-06T06:06:46;97298.03;;;20.36;54.08
48778;BME280;34578;0.000;0.000;2022-07-06T06:11:47;97300.56;;;20.30;54.21
48778;BME280;34578;0.000;0.000;2022-07-06T06:16:48;97302.25;;;20.28;54.50
48778;BME280;34578;0.000;0.000;2022-07-06T06:21:48;97299.72;;;20.28;54.66
48778;BME280;34578;0.000;0.000;2022-07-06T06:26:49;97304.81;;;20.28;54.84
48778;BME280;34578;0.000;0.000;2022-07-06T06:31:49;97309.88;;;20.28;55.03
48778;BME280;34578;0.000;0.000;2022-07-06T06:36:50;97309.03;;;20.27;54.99
48778;BME280;34578;0.000;0.000;2022-07-06T06:41:50;97304.81;;;20.28;54.89
48778;BME280;34578;0.000;0.000;2022-07-06T06:46:51;97309.06;;;20.42;54.24
48778;BME280;34578;0.000;0.000;2022-07-06T06:51:52;97301.47;;;20.49;54.22
48778;BME280;34578;0.000;0.000;2022-07-06T06:56:52;97301.44;;;20.43;54.66
48778;BME280;34578;0.000;0.000;2022-07-06T07:01:53;97298.03;;;20.38;54.94
48778;BME280;34578;0.000;0.000;2022-07-06T07:06:53;97306.53;;;20.35;55.21
48778;BME280;34578;0.000;0.000;2022-07-06T07:11:53;97304.81;;;20.35;55.43
48778;BME280;34578;0.000;0.000;2022-07-06T07:16:55;97298.03;;;20.33;55.26
48778;BME280;34578;0.000;0.000;2022-07-06T07:21:55;97295.50;;;20.33;55.41
48778;BME280;34578;0.000;0.000;2022-07-06T07:26:55;97303.13;;;20.33;55.51
48778;BME280;34578;0.000;0.000;2022-07-06T07:31:56;97283.63;;;20.26;55.49
48778;BME280;34578;0.000;0.000;2022-07-06T07:36:56;97292.94;;;20.43;55.33
48778;BME280;34578;0.000;0.000;2022-07-06T07:41:56;97304.84;;;20.57;55.77
48778;BME280;34578;0.000;0.000;2022-07-06T07:46:57;97315.84;;;20.56;55.09
48778;BME280;34578;0.000;0.000;2022-07-06T07:51:57;97307.38;;;20.45;55.46
48778;BME280;34578;0.000;0.000;2022-07-06T07:56:58;97300.59;;;20.42;55.89
48778;BME280;34578;0.000;0.000;2022-07-06T08:01:58;97315.00;;;20.39;55.93
48778;BME280;34578;0.000;0.000;2022-07-06T08:06:58;97313.28;;;20.38;55.78
48778;BME280;34578;0.000;0.000;2022-07-06T08:11:59;97314.16;;;20.39;55.99
48778;BME280;34578;0.000;0.000;2022-07-06T08:16:59;97294.63;;;20.31;55.95
48778;BME280;34578;0.000;0.000;2022-07-06T08:22:00;97316.69;;;20.38;56.19
48778;BME280;34578;0.000;0.000;2022-07-06T08:27:00;97315.84;;;20.37;56.17
48778;BME280;34578;0.000;0.000;2022-07-06T08:32:01;97328.59;;;20.56;56.13
48778;BME280;34578;0.000;0.000;2022-07-06T08:37:02;97326.91;;;20.64;55.57
48778;BME280;34578;0.000;0.000;2022-07-06T08:42:02;97320.13;;;20.51;56.06
48778;BME280;34578;0.000;0.000;2022-07-06T08:47:05;97324.34;;;20.46;56.15
48778;BME280;34578;0.000;0.000;2022-07-06T08:52:07;97320.94;;;20.42;56.35
48778;BME280;34578;0.000;0.000;2022-07-06T08:57:08;97318.41;;;20.42;56.42
48778;BME280;34578;0.000;0.000;2022-07-06T09:02:13;97328.59;;;20.42;56.41
48778;BME280;34578;0.000;0.000;2022-07-06T09:07:13;97322.63;;;20.41;56.41
48778;BME280;34578;0.000;0.000;2022-07-06T09:12:14;97329.41;;;20.40;56.72
48778;BME280;34578;0.000;0.000;2022-07-06T09:17:14;97340.41;;;20.39;56.49
48778;BME280;34578;0.000;0.000;2022-07-06T09:22:25;97335.38;;;20.57;56.73
48778;BME280;34578;0.000;0.000;2022-07-06T09:27:26;97340.50;;;20.66;56.65
48778;BME280;34578;0.000;0.000;2022-07-06T09:32:27;97339.63;;;20.54;56.18
48778;BME280;34578;0.000;0.000;2022-07-06T09:37:29;97344.69;;;20.48;56.49
48778;BME280;34578;0.000;0.000;2022-07-06T09:42:30;97360.78;;;20.45;56.83
48778;BME280;34578;0.000;0.000;2022-07-06T09:47:32;97341.28;;;20.36;56.75
48778;BME280;34578;0.000;0.000;2022-07-06T09:52:35;97357.41;;;20.43;56.62
48778;BME280;34578;0.000;0.000;2022-07-06T09:57:36;97359.09;;;20.42;56.54
48778;BME280;34578;0.000;0.000;2022-07-06T10:02:36;97353.16;;;20.42;56.86
48778;BME280;34578;0.000;0.000;2022-07-06T10:07:37;97354.03;;;20.42;56.92
48778;BME280;34578;0.000;0.000;2022-07-06T10:12:39;97354.03;;;20.53;56.68
48778;BME280;34578;0.000;0.000;2022-07-06T10:17:42;97351.53;;;20.68;57.11
48778;BME280;34578;0.000;0.000;2022-07-06T10:22:43;97347.25;;;20.64;56.58
48778;BME280;34578;0.000;0.000;2022-07-06T10:27:45;97347.25;;;20.52;56.85
48778;BME280;34578;0.000;0.000;2022-07-06T10:32:48;97332.81;;;20.44;57.02
48778;BME280;34578;0.000;0.000;2022-07-06T10:38:04;97346.41;;;20.46;56.95
48778;BME280;34578;0.000;0.000;2022-07-06T10:43:04;97353.16;;;20.45;56.92
48778;BME280;34578;0.000;0.000;2022-07-06T10:53:15;97342.97;;;20.44;57.45
48778;BME280;34578;0.000;0.000;2022-07-06T10:58:34;97346.38;;;20.42;57.17
48778;BME280;34578;0.000;0.000;2022-07-06T11:08:56;97332.84;;;20.69;57.31
48778;BME280;34578;0.000;0.000;2022-07-06T11:19:10;97331.97;;;20.55;57.18
48778;BME280;34578;0.000;0.000;2022-07-06T11:24:16;97326.91;;;20.45;57.12
48778;BME280;34578;0.000;0.000;2022-07-06T11:29:19;97332.81;;;20.47;57.23
48778;BME280;34578;0.000;0.000;2022-07-06T11:34:24;97323.50;;;20.44;57.31
48778;BME280;34578;0.000;0.000;2022-07-06T11:39:29;97316.72;;;20.45;57.34
48778;BME280;34578;0.000;0.000;2022-07-06T11:44:30;97316.72;;;20.43;57.43
48778;BME280;34578;0.000;0.000;2022-07-06T11:49:31;97311.63;;;20.43;57.58
48778;BME280;34578;0.000;0.000;2022-07-06T11:54:31;97315.84;;;20.52;57.23
48778;BME280;34578;0.000;0.000;2022-07-06T11:59:34;97309.97;;;20.71;56.40
48778;BME280;34578;0.000;0.000;2022-07-06T12:04:36;97309.97;;;20.75;56.37
48778;BME280;34578;0.000;0.000;2022-07-06T12:09:40;97307.41;;;20.60;56.88
48778;BME280;34578;0.000;0.000;2022-07-06T12:14:42;97319.28;;;20.54;57.15
48778;BME280;34578;0.000;0.000;2022-07-06T12:19:42;97313.34;;;20.50;57.30
48778;BME280;34578;0.000;0.000;2022-07-06T12:24:44;97309.09;;;20.45;57.45
48778;BME280;34578;0.000;0.000;2022-07-06T12:29:48;97306.53;;;20.48;57.20
48778;BME280;34578;0.000;0.000;2022-07-06T12:35:08;97298.91;;;20.48;57.30
48778;BME280;34578;0.000;0.000;2022-07-06T12:40:13;97293.81;;;20.46;57.57
48778;BME280;34578;0.000;0.000;2022-07-06T12:45:13;97289.56;;;20.48;57.46
48778;BME280;34578;0.000;0.000;2022-07-06T12:50:14;97290.44;;;20.71;56.92
48778;BME280;34578;0.000;0.000;2022-07-06T12:55:14;97297.25;;;20.80;56.79
48778;BME280;34578;0.000;0.000;2022-07-06T13:00:16;97295.53;;;20.68;56.95
48778;BME280;34578;0.000;0.000;2022-07-06T13:05:17;97284.47;;;20.57;57.47
48778;BME280;34578;0.000;0.000;2022-07-06T13:10:17;97286.19;;;20.52;57.28
48778;BME280;34578;0.000;0.000;2022-07-06T13:15:18;97282.81;;;20.50;57.57
48778;BME280;34578;0.000;0.000;2022-07-06T13:20:18;97287.03;;;20.51;57.68
48778;BME280;34578;0.000;0.000;2022-07-06T13:25:19;97278.56;;;20.49;57.81
48778;BME280;34578;0.000;0.000;2022-07-06T13:30:19;97273.47;;;20.49;57.78
48778;BME280;34578;0.000;0.000;2022-07-06T13:35:20;97275.16;;;20.49;57.90
48778;BME280;34578;0.000;0.000;2022-07-06T13:40:21;97270.94;;;20.61;57.84
48778;BME280;34578;0.000;0.000;2022-07-06T13:45:21;97275.19;;;20.79;58.21
48778;BME280;34578;0.000;0.000;2022-07-06T13:50:22;97270.94;;;20.75;57.38
48778;BME280;34578;0.000;0.000;2022-07-06T13:55:22;97262.47;;;20.59;57.68
48778;BME280;34578;0.000;0.000;2022-07-06T14:00:23;97267.53;;;20.55;57.81
48778;BME280;34578;0.000;0.000;2022-07-06T14:05:23;97268.38;;;20.52;57.82
48778;BME280;34578;0.000;0.000;2022-07-06T14:10:24;97258.22;;;20.48;57.90
48778;BME280;34578;0.000;0.000;2022-07-06T14:15:24;97265.00;;;20.49;58.08
48778;BME280;34578;0.000;0.000;2022-07-06T14:20:25;97258.22;;;20.49;57.96
48778;BME280;34578;0.000;0.000;2022-07-06T14:25:25;97249.72;;;20.49;58.16
48778;BME280;34578;0.000;0.000;2022-07-06T14:30:26;97248.03;;;20.57;58.40
48778;BME280;34578;0.000;0.000;2022-07-06T14:35:26;97246.31;;;20.77;58.31
48778;BME280;34578;0.000;0.000;2022-07-06T14:40:26;97241.22;;;20.81;57.33
48778;BME280;34578;0.000;0.000;2022-07-06T14:45:27;97241.25;;;20.65;57.55
48778;BME280;34578;0.000;0.000;2022-07-06T14:50:28;97239.56;;;20.58;58.09
48778;BME280;34578;0.000;0.000;2022-07-06T14:55:28;97231.91;;;20.53;58.10
48778;BME280;34578;0.000;0.000;2022-07-06T15:00:29;97228.53;;;20.47;58.27
48778;BME280;34578;0.000;0.000;2022-07-06T15:05:29;97237.84;;;20.52;58.27
48778;BME280;34578;0.000;0.000;2022-07-06T15:10:30;97236.16;;;20.50;58.26
48778;BME280;34578;0.000;0.000;2022-07-06T15:15:30;97235.31;;;20.49;58.22
48778;BME280;34578;0.000;0.000;2022-07-06T15:20:30;97235.31;;;20.49;58.38
48778;BME280;34578;0.000;0.000;2022-07-06T15:25:31;97227.66;;;20.70;58.65
48778;BME280;34578;0.000;0.000;2022-07-06T15:30:31;97214.94;;;20.76;58.28
48778;BME280;34578;0.000;0.000;2022-07-06T15:35:34;97220.88;;;20.77;57.72
48778;BME280;34578;0.000;0.000;2022-07-06T15:40:34;97222.59;;;20.60;58.00
48778;BME280;34578;0.000;0.000;2022-07-06T15:45:40;97214.94;;;20.55;58.43
48778;BME280;34578;0.000;0.000;2022-07-06T15:50:40;97221.75;;;20.53;58.33
48778;BME280;34578;0.000;0.000;2022-07-06T15:55:41;97218.34;;;20.51;58.27
48778;BME280;34578;0.000;0.000;2022-07-06T16:00:42;97217.50;;;20.52;58.45
48778;BME280;34578;0.000;0.000;2022-07-06T16:05:42;97215.81;;;20.51;58.67
48778;BME280;34578;0.000;0.000;2022-07-06T16:10:44;97213.28;;;20.51;58.46
48778;BME280;34578;0.000;0.000;2022-07-06T16:15:45;97193.75;;;20.56;58.85
48778;BME280;34578;0.000;0.000;2022-07-06T16:20:45;97201.34;;;20.80;58.39
48778;BME280;34578;0.000;0.000;2022-07-06T16:25:45;97198.81;;;20.85;57.55
48778;BME280;34578;0.000;0.000;2022-07-06T16:30:46;97198.00;;;20.69;58.00
48778;BME280;34578;0.000;0.000;2022-07-06T16:35:46;97200.53;;;20.60;58.31
48778;BME280;34578;0.000;0.000;2022-07-06T16:40:47;97192.06;;;20.60;58.58
48778;BME280;34578;0.000;0.000;2022-07-06T16:45:47;97198.00;;;20.60;58.90
48778;BME280;34578;0.000;0.000;2022-07-06T16:50:48;97194.59;;;20.64;58.48
48778;BME280;34578;0.000;0.000;2022-07-06T16:55:48;97196.31;;;20.68;58.46
48778;BME280;34578;0.000;0.000;2022-07-06T17:00:49;97197.97;;;20.72;58.46
48778;BME280;34578;0.000;0.000;2022-07-06T17:05:49;97195.44;;;20.69;58.22
48778;BME280;34578;0.000;0.000;2022-07-06T17:10:50;97211.56;;;20.86;59.12
48778;BME280;34578;0.000;0.000;2022-07-06T17:15:50;97214.94;;;20.94;59.14
48778;BME280;34578;0.000;0.000;2022-07-06T17:20:50;97218.34;;;20.84;58.30
48778;BME280;34578;0.000;0.000;2022-07-06T17:25:51;97218.31;;;20.81;58.36
48778;BME280;34578;0.000;0.000;2022-07-06T17:30:56;97221.72;;;20.77;58.42
48778;BME280;34578;0.000;0.000;2022-07-06T17:35:57;97226.81;;;20.77;58.45
48778;BME280;34578;0.000;0.000;2022-07-06T17:40:57;97237.03;;;20.74;58.54
48778;BME280;34578;0.000;0.000;2022-07-06T17:45:57;97248.03;;;20.43;59.10
48778;BME280;34578;0.000;0.000;2022-07-06T17:50:58;97246.31;;;20.28;57.53
48778;BME280;34578;0.000;0.000;2022-07-06T17:55:58;97253.09;;;20.26;56.41
48778;BME280;34578;0.000;0.000;2022-07-06T18:00:58;97262.41;;;20.13;54.98
48778;BME280;34578;0.000;0.000;2022-07-06T18:05:59;97268.31;;;20.14;53.81
48778;BME280;34578;0.000;0.000;2022-07-06T18:11:01;97271.63;;;20.02;54.70
48778;BME280;34578;0.000;0.000;2022-07-06T18:16:03;97264.91;;;20.06;54.06
48778;BME280;34578;0.000;0.000;2022-07-06T18:21:04;97282.66;;;19.97;52.94
48778;BME280;34578;0.000;0.000;2022-07-06T18:26:04;97289.41;;;19.98;51.70
48778;BME280;34578;0.000;0.000;2022-07-06T18:31:06;97298.75;;;19.96;52.44
48778;BME280;34578;0.000;0.000;2022-07-06T18:36:07;97288.56;;;19.84;50.64
48778;BME280;34578;0.000;0.000;2022-07-06T18:41:07;97299.56;;;19.89;50.08
48778;BME280;34578;0.000;0.000;2022-07-06T18:46:08;97299.53;;;19.84;49.77
48778;BME280;34578;0.000;0.000;2022-07-06T18:51:09;97301.25;;;19.84;50.75
48778;BME280;34578;0.000;0.000;2022-07-06T18:56:09;97285.97;;;19.78;49.03
48778;BME280;34578;0.000;0.000;2022-07-06T19:01:10;97292.75;;;19.79;49.45
48778;BME280;34578;0.000;0.000;2022-07-06T19:06:14;97284.25;;;19.75;50.56
48778;BME280;34578;0.000;0.000;2022-07-06T19:11:15;97274.94;;;19.71;50.57
48778;BME280;34578;0.000;0.000;2022-07-06T19:16:15;97280.03;;;19.76;50.03
48778;BME280;34578;0.000;0.000;2022-07-06T19:21:16;97295.25;;;19.68;50.41
48778;BME280;34578;0.000;0.000;2022-07-06T19:26:16;97303.66;;;19.57;50.09
48778;BME280;34578;0.000;0.000;2022-07-06T19:31:17;97314.66;;;19.56;49.80
48778;BME280;34578;0.000;0.000;2022-07-06T19:36:18;97303.63;;;19.51;49.38
48778;BME280;34578;0.000;0.000;2022-07-06T19:41:19;97297.66;;;19.46;49.41
48778;BME280;34578;0.000;0.000;2022-07-06T19:46:22;97303.56;;;19.37;49.86
48778;BME280;34578;0.000;0.000;2022-07-06T19:51:23;97316.25;;;19.39;49.53
48778;BME280;34578;0.000;0.000;2022-07-06T19:56:23;97317.03;;;19.27;49.47
48778;BME280;34578;0.000;0.000;2022-07-06T20:01:23;97323.84;;;19.31;49.58
48778;BME280;34578;0.000;0.000;2022-07-06T20:06:24;97342.44;;;19.32;50.30
48778;BME280;34578;0.000;0.000;2022-07-06T20:11:25;97344.09;;;19.25;50.22
48778;BME280;34578;0.000;0.000;2022-07-06T20:16:28;97353.38;;;19.22;50.50
48778;BME280;34578;0.000;0.000;2022-07-06T20:21:29;97355.00;;;19.18;51.35
48778;BME280;34578;0.000;0.000;2022-07-06T20:26:29;97374.47;;;19.16;51.73
48778;BME280;34578;0.000;0.000;2022-07-06T20:31:29;97379.53;;;19.16;52.34
48778;BME280;34578;0.000;0.000;2022-07-06T20:36:30;97378.59;;;19.07;52.68
48778;BME280;34578;0.000;0.000;2022-07-06T20:41:31;97370.13;;;19.02;51.02
48778;BME280;34578;0.000;0.000;2022-07-06T20:46:31;97386.19;;;19.02;51.42
48778;BME280;34578;0.000;0.000;2022-07-06T20:51:32;97371.75;;;18.97;51.97
48778;BME280;34578;0.000;0.000;2022-07-06T20:56:32;97361.59;;;18.91;52.17
48778;BME280;34578;0.000;0.000;2022-07-06T21:01:33;97364.91;;;18.87;52.53
48778;BME280;34578;0.000;0.000;2022-07-06T21:06:34;97369.06;;;18.79;53.22
48778;BME280;34578;0.000;0.000;2022-07-06T21:11:34;97373.31;;;18.80;52.68
48778;BME280;34578;0.000;0.000;2022-07-06T21:16:35;97363.16;;;18.80;52.75
48778;BME280;34578;0.000;0.000;2022-07-06T21:21:35;97348.81;;;18.82;52.73
48778;BME280;34578;0.000;0.000;2022-07-06T21:26:36;97341.97;;;18.76;52.49
48778;BME280;34578;0.000;0.000;2022-07-06T21:31:36;97346.22;;;18.76;52.64
48778;BME280;34578;0.000;0.000;2022-07-06T21:36:37;97348.72;;;18.74;52.58
48778;BME280;34578;0.000;0.000;2022-07-06T21:41:37;97357.16;;;18.72;52.15
48778;BME280;34578;0.000;0.000;2022-07-06T21:46:37;97351.22;;;18.67;52.63
48778;BME280;34578;0.000;0.000;2022-07-06T21:51:38;97353.72;;;18.62;53.44
48778;BME280;34578;0.000;0.000;2022-07-06T21:56:38;97354.53;;;18.60;53.14
48778;BME280;34578;0.000;0.000;2022-07-06T22:01:39;97358.69;;;18.53;53.11
48778;BME280;34578;0.000;0.000;2022-07-06T22:06:39;97354.50;;;18.57;52.97
48778;BME280;34578;0.000;0.000;2022-07-06T22:11:39;97356.16;;;18.55;52.68
48778;BME280;34578;0.000;0.000;2022-07-06T22:16:40;97360.34;;;18.51;52.76
48778;BME280;34578;0.000;0.000;2022-07-06T22:21:42;97362.88;;;18.50;53.06
48778;BME280;34578;0.000;0.000;2022-07-06T22:26:42;97356.06;;;18.44;52.81
48778;BME280;34578;0.000;0.000;2022-07-06T22:31:43;97359.38;;;18.40;52.83
48778;BME280;34578;0.000;0.000;2022-07-06T22:36:43;97358.53;;;18.38;52.96
48778;BME280;34578;0.000;0.000;2022-07-06T22:41:43;97354.31;;;18.37;52.56
48778;BME280;34578;0.000;0.000;2022-07-06T22:46:44;97349.13;;;18.30;52.81
48778;BME280;34578;0.000;0.000;2022-07-06T22:51:44;97353.38;;;18.29;52.80
48778;BME280;34578;0.000;0.000;2022-07-06T22:56:45;97346.53;;;18.27;52.72
48778;BME280;34578;0.000;0.000;2022-07-06T23:01:45;97346.53;;;18.27;52.72
48778;BME280;34578;0.000;0.000;2022-07-06T23:06:46;97348.22;;;18.26;52.76
48778;BME280;34578;0.000;0.000;2022-07-06T23:11:46;97359.13;;;18.21;52.68
48778;BME280;34578;0.000;0.000;2022-07-06T23:16:47;97353.88;;;18.06;53.23
48778;BME280;34578;0.000;0.000;2022-07-06T23:21:47;97374.25;;;18.12;53.11
48778;BME280;34578;0.000;0.000;2022-07-06T23:26:47;97369.94;;;18.05;53.14
48778;BME280;34578;0.000;0.000;2022-07-06T23:31:48;97369.94;;;18.03;53.03
48778;BME280;34578;0.000;0.000;2022-07-06T23:36:48;97357.22;;;17.99;53.27
48778;BME280;34578;0.000;0.000;2022-07-06T23:41:48;97347.03;;;17.94;52.95
48778;BME280;34578;0.000;0.000;2022-07-06T23:46:49;97342.00;;;17.99;52.70
48778;BME280;34578;0.000;0.000;2022-07-06T23:51:49;97349.59;;;17.99;52.73
48778;BME280;34578;0.000;0.000;2022-07-06T23:56:50;97341.09;;;17.94;52.81
